sensor_id;sensor_type;location;lat;lon;timestamp;P1;durP1;ratioP1;P2;durP2;ratioP2
66669;SDS011;53568;52.164;4.472;2024-02-14T00:00:07;13.99;;;13.99;;
66669;SDS011;53568;52.164;4.472;2024-02-14T00:02:39;13.75;;;13.75;;
66669;SDS011;53568;52.164;4.472;2024-02-14T00:05:06;13.35;;;13.35;;
66669;SDS011;53568;52.164;4.472;2024-02-14T00:07:32;13.33;;;13.33;;
66669;SDS011;53568;52.164;4.472;2024-02-14T00:09:58;13.47;;;13.47;;
66669;SDS011;53568;52.164;4.472;2024-02-14T00:12:23;14.14;;;14.14;;
66669;SDS011;53568;52.164;4.472;2024-02-14T00:14:50;13.82;;;13.82;;
66669;SDS011;53568;52.164;4.472;2024-02-14T00:17:15;14.13;;;14.13;;
66669;SDS011;53568;52.164;4.472;2024-02-14T00:19:41;14.57;;;14.57;;
66669;SDS011;53568;52.164;4.472;2024-02-14T00:22:06;15.08;;;15.08;;
66669;SDS011;53568;52.164;4.472;2024-02-14T00:24:32;14.93;;;14.93;;
66669;SDS011;53568;52.164;4.472;2024-02-14T00:26:59;14.48;;;14.48;;
66669;SDS011;53568;52.164;4.472;2024-02-14T00:29:25;14.56;;;14.56;;
66669;SDS011;53568;52.164;4.472;2024-02-14T00:31:51;14.44;;;14.44;;
66669;SDS011;53568;52.164;4.472;2024-02-14T00:34:17;14.65;;;14.65;;
66669;SDS011;53568;52.164;4.472;2024-02-14T00:36:42;14.86;;;14.86;;
66669;SDS011;53568;52.164;4.472;2024-02-14T00:39:08;15.17;;;15.17;;
66669;SDS011;53568;52.164;4.472;2024-02-14T00:41:34;15.08;;;15.08;;
66669;SDS011;53568;52.164;4.472;2024-02-14T00:44:00;14.98;;;14.98;;
66669;SDS011;53568;52.164;4.472;2024-02-14T00:46:28;14.53;;;14.53;;
66669;SDS011;53568;52.164;4.472;2024-02-14T00:48:54;14.72;;;14.72;;
66669;SDS011;53568;52.164;4.472;2024-02-14T00:51:21;14.23;;;14.23;;
66669;SDS011;53568;52.164;4.472;2024-02-14T00:53:47;13.93;;;13.93;;
66669;SDS011;53568;52.164;4.472;2024-02-14T00:56:12;14.10;;;14.10;;
66669;SDS011;53568;52.164;4.472;2024-02-14T00:58:38;14.28;;;14.28;;
66669;SDS011;53568;52.164;4.472;2024-02-14T01:01:04;14.30;;;14.30;;
66669;SDS011;53568;52.164;4.472;2024-02-14T01:03:33;14.50;;;14.50;;
66669;SDS011;53568;52.164;4.472;2024-02-14T01:05:59;14.52;;;14.52;;
66669;SDS011;53568;52.164;4.472;2024-02-14T01:08:24;14.37;;;14.37;;
66669;SDS011;53568;52.164;4.472;2024-02-14T01:10:50;14.86;;;14.86;;
66669;SDS011;53568;52.164;4.472;2024-02-14T01:13:18;15.43;;;15.43;;
66669;SDS011;53568;52.164;4.472;2024-02-14T01:15:44;15.06;;;15.06;;
66669;SDS011;53568;52.164;4.472;2024-02-14T01:18:09;14.90;;;14.90;;
66669;SDS011;53568;52.164;4.472;2024-02-14T01:20:35;15.59;;;15.59;;
66669;SDS011;53568;52.164;4.472;2024-02-14T01:23:02;15.29;;;15.29;;
66669;SDS011;53568;52.164;4.472;2024-02-14T01:25:28;15.61;;;15.61;;
66669;SDS011;53568;52.164;4.472;2024-02-14T01:27:54;15.30;;;15.30;;
66669;SDS011;53568;52.164;4.472;2024-02-14T01:30:21;15.46;;;15.46;;
66669;SDS011;53568;52.164;4.472;2024-02-14T01:32:47;14.88;;;14.88;;
66669;SDS011;53568;52.164;4.472;2024-02-14T01:35:12;14.67;;;14.67;;
66669;SDS011;53568;52.164;4.472;2024-02-14T01:37:38;14.95;;;14.95;;
66669;SDS011;53568;52.164;4.472;2024-02-14T01:40:05;14.49;;;14.49;;
66669;SDS011;53568;52.164;4.472;2024-02-14T01:42:32;14.25;;;14.25;;
66669;SDS011;53568;52.164;4.472;2024-02-14T01:44:58;13.12;;;13.12;;
66669;SDS011;53568;52.164;4.472;2024-02-14T01:47:23;13.02;;;13.02;;
66669;SDS011;53568;52.164;4.472;2024-02-14T01:49:49;12.64;;;12.64;;
66669;SDS011;53568;52.164;4.472;2024-02-14T01:52:15;11.98;;;11.98;;
66669;SDS011;53568;52.164;4.472;2024-02-14T01:54:41;10.78;;;10.78;;
66669;SDS011;53568;52.164;4.472;2024-02-14T01:57:07;10.93;;;10.93;;
66669;SDS011;53568;52.164;4.472;2024-02-14T01:59:35;10.61;;;10.61;;
66669;SDS011;53568;52.164;4.472;2024-02-14T02:02:01;10.58;;;10.58;;
66669;SDS011;53568;52.164;4.472;2024-02-14T02:04:27;9.87;;;9.87;;
66669;SDS011;53568;52.164;4.472;2024-02-14T02:06:52;9.26;;;9.26;;
66669;SDS011;53568;52.164;4.472;2024-02-14T02:09:21;8.33;;;8.33;;
66669;SDS011;53568;52.164;4.472;2024-02-14T02:11:48;7.60;;;7.60;;
66669;SDS011;53568;52.164;4.472;2024-02-14T02:14:15;7.20;;;7.20;;
66669;SDS011;53568;52.164;4.472;2024-02-14T02:16:41;6.61;;;6.61;;
66669;SDS011;53568;52.164;4.472;2024-02-14T02:19:07;6.78;;;6.78;;
66669;SDS011;53568;52.164;4.472;2024-02-14T02:21:34;7.03;;;7.03;;
66669;SDS011;53568;52.164;4.472;2024-02-14T02:24:01;7.99;;;7.99;;
66669;SDS011;53568;52.164;4.472;2024-02-14T02:26:27;8.74;;;8.74;;
66669;SDS011;53568;52.164;4.472;2024-02-14T02:28:52;8.84;;;8.84;;
66669;SDS011;53568;52.164;4.472;2024-02-14T02:31:19;9.31;;;9.31;;
66669;SDS011;53568;52.164;4.472;2024-02-14T02:33:45;9.11;;;9.11;;
66669;SDS011;53568;52.164;4.472;2024-02-14T02:36:11;9.64;;;9.64;;
66669;SDS011;53568;52.164;4.472;2024-02-14T02:38:37;10.19;;;10.19;;
66669;SDS011;53568;52.164;4.472;2024-02-14T02:41:03;10.02;;;10.02;;
66669;SDS011;53568;52.164;4.472;2024-02-14T02:43:34;9.88;;;9.88;;
66669;SDS011;53568;52.164;4.472;2024-02-14T02:46:01;9.08;;;9.08;;
66669;SDS011;53568;52.164;4.472;2024-02-14T02:48:27;9.01;;;9.01;;
66669;SDS011;53568;52.164;4.472;2024-02-14T02:50:52;9.01;;;8.94;;
66669;SDS011;53568;52.164;4.472;2024-02-14T02:53:18;9.19;;;9.07;;
66669;SDS011;53568;52.164;4.472;2024-02-14T02:55:44;8.90;;;8.84;;
66669;SDS011;53568;52.164;4.472;2024-02-14T02:58:10;8.78;;;8.76;;
66669;SDS011;53568;52.164;4.472;2024-02-14T03:00:36;8.57;;;8.55;;
66669;SDS011;53568;52.164;4.472;2024-02-14T03:03:02;8.45;;;8.39;;
66669;SDS011;53568;52.164;4.472;2024-02-14T03:05:34;9.15;;;8.91;;
66669;SDS011;53568;52.164;4.472;2024-02-14T03:08:00;9.01;;;8.52;;
66669;SDS011;53568;52.164;4.472;2024-02-14T03:10:26;8.21;;;8.02;;
66669;SDS011;53568;52.164;4.472;2024-02-14T03:12:52;7.72;;;7.56;;
66669;SDS011;53568;52.164;4.472;2024-02-14T03:15:18;7.96;;;7.58;;
66669;SDS011;53568;52.164;4.472;2024-02-14T03:17:45;8.34;;;7.78;;
66669;SDS011;53568;52.164;4.472;2024-02-14T03:20:11;8.50;;;7.55;;
66669;SDS011;53568;52.164;4.472;2024-02-14T03:22:38;8.50;;;7.53;;
66669;SDS011;53568;52.164;4.472;2024-02-14T03:25:16;8.59;;;7.51;;
66669;SDS011;53568;52.164;4.472;2024-02-14T03:27:43;8.40;;;7.44;;
66669;SDS011;53568;52.164;4.472;2024-02-14T03:30:14;8.58;;;7.42;;
66669;SDS011;53568;52.164;4.472;2024-02-14T03:32:41;8.95;;;7.51;;
66669;SDS011;53568;52.164;4.472;2024-02-14T03:35:10;9.39;;;7.62;;
66669;SDS011;53568;52.164;4.472;2024-02-14T03:37:38;9.54;;;7.74;;
66669;SDS011;53568;52.164;4.472;2024-02-14T03:40:08;9.94;;;7.97;;
66669;SDS011;53568;52.164;4.472;2024-02-14T03:42:34;10.22;;;8.14;;
66669;SDS011;53568;52.164;4.472;2024-02-14T03:45:00;9.03;;;7.50;;
66669;SDS011;53568;52.164;4.472;2024-02-14T03:47:34;9.51;;;7.69;;
66669;SDS011;53568;52.164;4.472;2024-02-14T03:50:00;10.32;;;8.20;;
66669;SDS011;53568;52.164;4.472;2024-02-14T03:52:27;10.35;;;8.13;;
66669;SDS011;53568;52.164;4.472;2024-02-14T03:54:53;10.72;;;8.21;;
66669;SDS011;53568;52.164;4.472;2024-02-14T03:57:19;9.85;;;7.76;;
66669;SDS011;53568;52.164;4.472;2024-02-14T03:59:44;9.65;;;7.80;;
66669;SDS011;53568;52.164;4.472;2024-02-14T04:02:11;9.21;;;7.40;;
66669;SDS011;53568;52.164;4.472;2024-02-14T04:04:37;10.88;;;8.40;;
66669;SDS011;53568;52.164;4.472;2024-02-14T04:07:03;9.96;;;7.80;;
66669;SDS011;53568;52.164;4.472;2024-02-14T04:09:29;9.48;;;7.61;;
66669;SDS011;53568;52.164;4.472;2024-02-14T04:11:54;9.72;;;7.72;;
66669;SDS011;53568;52.164;4.472;2024-02-14T04:14:20;10.36;;;8.35;;
66669;SDS011;53568;52.164;4.472;2024-02-14T04:16:46;10.03;;;7.96;;
66669;SDS011;53568;52.164;4.472;2024-02-14T04:19:12;10.41;;;8.00;;
66669;SDS011;53568;52.164;4.472;2024-02-14T04:21:38;9.13;;;7.40;;
66669;SDS011;53568;52.164;4.472;2024-02-14T04:24:04;9.02;;;7.37;;
66669;SDS011;53568;52.164;4.472;2024-02-14T04:26:29;10.23;;;7.86;;
66669;SDS011;53568;52.164;4.472;2024-02-14T04:28:55;10.45;;;7.85;;
66669;SDS011;53568;52.164;4.472;2024-02-14T04:31:20;9.27;;;7.25;;
66669;SDS011;53568;52.164;4.472;2024-02-14T04:33:46;9.89;;;7.64;;
66669;SDS011;53568;52.164;4.472;2024-02-14T04:36:17;10.25;;;7.83;;
66669;SDS011;53568;52.164;4.472;2024-02-14T04:38:46;10.35;;;7.84;;
66669;SDS011;53568;52.164;4.472;2024-02-14T04:41:12;10.07;;;7.74;;
66669;SDS011;53568;52.164;4.472;2024-02-14T04:43:39;10.34;;;7.85;;
66669;SDS011;53568;52.164;4.472;2024-02-14T04:46:05;9.91;;;7.69;;
66669;SDS011;53568;52.164;4.472;2024-02-14T04:48:32;10.07;;;7.77;;
66669;SDS011;53568;52.164;4.472;2024-02-14T04:50:58;10.47;;;7.97;;
66669;SDS011;53568;52.164;4.472;2024-02-14T04:53:24;10.78;;;8.39;;
66669;SDS011;53568;52.164;4.472;2024-02-14T04:55:50;9.81;;;7.94;;
66669;SDS011;53568;52.164;4.472;2024-02-14T04:58:15;11.05;;;8.78;;
66669;SDS011;53568;52.164;4.472;2024-02-14T05:00:41;10.47;;;8.52;;
66669;SDS011;53568;52.164;4.472;2024-02-14T05:03:07;10.29;;;8.64;;
66669;SDS011;53568;52.164;4.472;2024-02-14T05:05:35;10.09;;;8.60;;
66669;SDS011;53568;52.164;4.472;2024-02-14T05:08:01;9.68;;;8.59;;
66669;SDS011;53568;52.164;4.472;2024-02-14T05:10:27;8.86;;;7.87;;
66669;SDS011;53568;52.164;4.472;2024-02-14T05:12:54;8.14;;;7.32;;
66669;SDS011;53568;52.164;4.472;2024-02-14T05:15:19;8.26;;;7.42;;
66669;SDS011;53568;52.164;4.472;2024-02-14T05:17:45;8.11;;;7.21;;
66669;SDS011;53568;52.164;4.472;2024-02-14T05:20:11;8.07;;;7.14;;
66669;SDS011;53568;52.164;4.472;2024-02-14T05:22:36;8.49;;;7.41;;
66669;SDS011;53568;52.164;4.472;2024-02-14T05:25:03;8.58;;;7.43;;
66669;SDS011;53568;52.164;4.472;2024-02-14T05:27:30;8.91;;;7.64;;
66669;SDS011;53568;52.164;4.472;2024-02-14T05:29:56;8.63;;;7.53;;
66669;SDS011;53568;52.164;4.472;2024-02-14T05:32:22;8.27;;;7.32;;
66669;SDS011;53568;52.164;4.472;2024-02-14T05:34:48;7.87;;;7.06;;
66669;SDS011;53568;52.164;4.472;2024-02-14T05:37:14;6.96;;;6.31;;
66669;SDS011;53568;52.164;4.472;2024-02-14T05:39:39;7.02;;;6.24;;
66669;SDS011;53568;52.164;4.472;2024-02-14T05:42:05;7.36;;;6.46;;
66669;SDS011;53568;52.164;4.472;2024-02-14T05:44:31;7.01;;;6.19;;
66669;SDS011;53568;52.164;4.472;2024-02-14T05:46:57;7.62;;;6.70;;
66669;SDS011;53568;52.164;4.472;2024-02-14T05:49:22;7.08;;;6.25;;
66669;SDS011;53568;52.164;4.472;2024-02-14T05:51:49;7.73;;;6.74;;
66669;SDS011;53568;52.164;4.472;2024-02-14T05:54:17;7.55;;;6.79;;
66669;SDS011;53568;52.164;4.472;2024-02-14T05:56:43;7.16;;;6.48;;
66669;SDS011;53568;52.164;4.472;2024-02-14T05:59:09;7.48;;;6.81;;
66669;SDS011;53568;52.164;4.472;2024-02-14T06:01:35;7.56;;;6.89;;
66669;SDS011;53568;52.164;4.472;2024-02-14T06:04:03;7.67;;;7.10;;
66669;SDS011;53568;52.164;4.472;2024-02-14T06:06:28;7.73;;;7.13;;
66669;SDS011;53568;52.164;4.472;2024-02-14T06:08:54;8.18;;;7.53;;
66669;SDS011;53568;52.164;4.472;2024-02-14T06:11:20;8.81;;;8.02;;
66669;SDS011;53568;52.164;4.472;2024-02-14T06:13:49;8.89;;;8.21;;
66669;SDS011;53568;52.164;4.472;2024-02-14T06:16:15;8.62;;;7.99;;
66669;SDS011;53568;52.164;4.472;2024-02-14T06:18:40;8.79;;;8.33;;
66669;SDS011;53568;52.164;4.472;2024-02-14T06:21:06;8.80;;;8.52;;
66669;SDS011;53568;52.164;4.472;2024-02-14T06:23:32;8.99;;;8.57;;
66669;SDS011;53568;52.164;4.472;2024-02-14T06:25:57;8.74;;;8.53;;
66669;SDS011;53568;52.164;4.472;2024-02-14T06:28:23;8.91;;;8.68;;
66669;SDS011;53568;52.164;4.472;2024-02-14T06:30:49;8.12;;;8.05;;
66669;SDS011;53568;52.164;4.472;2024-02-14T06:33:14;8.00;;;8.00;;
66669;SDS011;53568;52.164;4.472;2024-02-14T06:35:40;8.57;;;8.57;;
66669;SDS011;53568;52.164;4.472;2024-02-14T06:38:05;8.57;;;8.57;;
66669;SDS011;53568;52.164;4.472;2024-02-14T06:40:31;9.04;;;9.02;;
66669;SDS011;53568;52.164;4.472;2024-02-14T06:42:57;10.00;;;10.00;;
66669;SDS011;53568;52.164;4.472;2024-02-14T06:45:25;10.98;;;10.97;;
66669;SDS011;53568;52.164;4.472;2024-02-14T06:47:53;11.92;;;11.91;;
66669;SDS011;53568;52.164;4.472;2024-02-14T06:50:19;12.30;;;12.30;;
66669;SDS011;53568;52.164;4.472;2024-02-14T06:52:45;13.27;;;13.27;;
66669;SDS011;53568;52.164;4.472;2024-02-14T06:55:10;12.95;;;12.95;;
66669;SDS011;53568;52.164;4.472;2024-02-14T06:57:36;13.02;;;13.02;;
66669;SDS011;53568;52.164;4.472;2024-02-14T07:00:03;12.62;;;12.62;;
66669;SDS011;53568;52.164;4.472;2024-02-14T07:02:34;12.61;;;12.60;;
66669;SDS011;53568;52.164;4.472;2024-02-14T07:04:59;12.66;;;12.66;;
66669;SDS011;53568;52.164;4.472;2024-02-14T07:07:25;13.13;;;13.11;;
66669;SDS011;53568;52.164;4.472;2024-02-14T07:09:51;12.71;;;12.71;;
66669;SDS011;53568;52.164;4.472;2024-02-14T07:12:16;12.67;;;12.67;;
66669;SDS011;53568;52.164;4.472;2024-02-14T07:14:42;12.38;;;12.38;;
66669;SDS011;53568;52.164;4.472;2024-02-14T07:17:07;12.30;;;12.30;;
66669;SDS011;53568;52.164;4.472;2024-02-14T07:19:33;11.69;;;11.69;;
66669;SDS011;53568;52.164;4.472;2024-02-14T07:21:58;12.07;;;12.07;;
66669;SDS011;53568;52.164;4.472;2024-02-14T07:24:24;11.86;;;11.86;;
66669;SDS011;53568;52.164;4.472;2024-02-14T07:26:49;12.08;;;12.08;;
66669;SDS011;53568;52.164;4.472;2024-02-14T07:29:15;11.74;;;11.73;;
66669;SDS011;53568;52.164;4.472;2024-02-14T07:31:40;11.71;;;11.68;;
66669;SDS011;53568;52.164;4.472;2024-02-14T07:34:06;11.47;;;11.47;;
66669;SDS011;53568;52.164;4.472;2024-02-14T07:36:32;10.94;;;10.94;;
66669;SDS011;53568;52.164;4.472;2024-02-14T07:38:57;11.07;;;11.07;;
66669;SDS011;53568;52.164;4.472;2024-02-14T07:41:23;11.37;;;11.36;;
66669;SDS011;53568;52.164;4.472;2024-02-14T07:43:49;10.44;;;10.43;;
66669;SDS011;53568;52.164;4.472;2024-02-14T07:46:20;11.03;;;11.03;;
66669;SDS011;53568;52.164;4.472;2024-02-14T07:48:47;10.38;;;10.38;;
66669;SDS011;53568;52.164;4.472;2024-02-14T07:51:14;9.67;;;9.67;;
66669;SDS011;53568;52.164;4.472;2024-02-14T07:53:39;9.98;;;9.95;;
66669;SDS011;53568;52.164;4.472;2024-02-14T07:56:05;9.74;;;9.74;;
66669;SDS011;53568;52.164;4.472;2024-02-14T07:58:31;9.61;;;9.59;;
66669;SDS011;53568;52.164;4.472;2024-02-14T08:00:56;9.18;;;9.18;;
66669;SDS011;53568;52.164;4.472;2024-02-14T08:03:22;8.55;;;8.55;;
66669;SDS011;53568;52.164;4.472;2024-02-14T08:05:49;8.78;;;8.78;;
66669;SDS011;53568;52.164;4.472;2024-02-14T08:08:16;8.26;;;8.26;;
66669;SDS011;53568;52.164;4.472;2024-02-14T08:10:42;8.44;;;8.44;;
66669;SDS011;53568;52.164;4.472;2024-02-14T08:13:07;7.74;;;7.73;;
66669;SDS011;53568;52.164;4.472;2024-02-14T08:15:33;7.35;;;7.35;;
66669;SDS011;53568;52.164;4.472;2024-02-14T08:17:58;6.71;;;6.71;;
66669;SDS011;53568;52.164;4.472;2024-02-14T08:20:24;6.33;;;6.33;;
66669;SDS011;53568;52.164;4.472;2024-02-14T08:22:50;5.77;;;5.77;;
66669;SDS011;53568;52.164;4.472;2024-02-14T08:25:15;5.98;;;5.98;;
66669;SDS011;53568;52.164;4.472;2024-02-14T08:27:41;5.68;;;5.68;;
66669;SDS011;53568;52.164;4.472;2024-02-14T08:30:07;5.92;;;5.92;;
66669;SDS011;53568;52.164;4.472;2024-02-14T08:32:34;5.94;;;5.94;;
66669;SDS011;53568;52.164;4.472;2024-02-14T08:35:00;5.88;;;5.88;;
66669;SDS011;53568;52.164;4.472;2024-02-14T08:37:26;5.93;;;5.93;;
66669;SDS011;53568;52.164;4.472;2024-02-14T08:39:52;6.30;;;6.30;;
66669;SDS011;53568;52.164;4.472;2024-02-14T08:42:18;7.22;;;7.22;;
66669;SDS011;53568;52.164;4.472;2024-02-14T08:44:43;7.80;;;7.80;;
66669;SDS011;53568;52.164;4.472;2024-02-14T08:47:09;8.57;;;8.57;;
66669;SDS011;53568;52.164;4.472;2024-02-14T08:49:35;8.41;;;8.41;;
66669;SDS011;53568;52.164;4.472;2024-02-14T08:52:01;8.66;;;8.66;;
66669;SDS011;53568;52.164;4.472;2024-02-14T08:54:27;8.29;;;8.29;;
66669;SDS011;53568;52.164;4.472;2024-02-14T08:56:53;8.27;;;8.27;;
66669;SDS011;53568;52.164;4.472;2024-02-14T08:59:21;9.87;;;9.87;;
66669;SDS011;53568;52.164;4.472;2024-02-14T09:01:47;9.63;;;9.63;;
66669;SDS011;53568;52.164;4.472;2024-02-14T09:04:13;9.58;;;9.58;;
66669;SDS011;53568;52.164;4.472;2024-02-14T09:06:39;9.99;;;9.99;;
66669;SDS011;53568;52.164;4.472;2024-02-14T09:09:06;10.45;;;10.45;;
66669;SDS011;53568;52.164;4.472;2024-02-14T09:11:32;10.67;;;10.67;;
66669;SDS011;53568;52.164;4.472;2024-02-14T09:13:57;10.87;;;10.87;;
66669;SDS011;53568;52.164;4.472;2024-02-14T09:16:30;10.57;;;10.57;;
66669;SDS011;53568;52.164;4.472;2024-02-14T09:18:56;10.36;;;10.36;;
66669;SDS011;53568;52.164;4.472;2024-02-14T09:21:23;10.46;;;10.46;;
66669;SDS011;53568;52.164;4.472;2024-02-14T09:23:48;10.50;;;10.50;;
66669;SDS011;53568;52.164;4.472;2024-02-14T09:26:14;10.57;;;10.57;;
66669;SDS011;53568;52.164;4.472;2024-02-14T09:28:41;10.32;;;10.32;;
66669;SDS011;53568;52.164;4.472;2024-02-14T09:31:07;10.36;;;10.36;;
66669;SDS011;53568;52.164;4.472;2024-02-14T09:33:36;11.44;;;11.44;;
66669;SDS011;53568;52.164;4.472;2024-02-14T09:36:05;11.74;;;11.74;;
66669;SDS011;53568;52.164;4.472;2024-02-14T09:38:31;11.99;;;11.99;;
66669;SDS011;53568;52.164;4.472;2024-02-14T09:40:58;11.64;;;11.64;;
66669;SDS011;53568;52.164;4.472;2024-02-14T09:43:51;12.38;;;12.38;;
66669;SDS011;53568;52.164;4.472;2024-02-14T09:46:17;12.17;;;12.17;;
66669;SDS011;53568;52.164;4.472;2024-02-14T09:48:43;11.67;;;11.67;;
66669;SDS011;53568;52.164;4.472;2024-02-14T09:51:10;10.91;;;10.91;;
66669;SDS011;53568;52.164;4.472;2024-02-14T09:53:37;10.88;;;10.88;;
66669;SDS011;53568;52.164;4.472;2024-02-14T09:56:03;10.80;;;10.80;;
66669;SDS011;53568;52.164;4.472;2024-02-14T09:58:33;10.18;;;10.18;;
66669;SDS011;53568;52.164;4.472;2024-02-14T10:01:00;10.20;;;10.20;;
66669;SDS011;53568;52.164;4.472;2024-02-14T10:03:25;10.21;;;10.21;;
66669;SDS011;53568;52.164;4.472;2024-02-14T10:05:51;9.08;;;9.08;;
66669;SDS011;53568;52.164;4.472;2024-02-14T10:08:18;9.91;;;9.91;;
66669;SDS011;53568;52.164;4.472;2024-02-14T10:10:46;9.87;;;9.87;;
66669;SDS011;53568;52.164;4.472;2024-02-14T10:13:12;10.17;;;10.17;;
66669;SDS011;53568;52.164;4.472;2024-02-14T10:15:37;10.16;;;10.16;;
66669;SDS011;53568;52.164;4.472;2024-02-14T10:18:03;9.89;;;9.89;;
66669;SDS011;53568;52.164;4.472;2024-02-14T10:20:29;9.71;;;9.71;;
66669;SDS011;53568;52.164;4.472;2024-02-14T10:23:03;9.29;;;9.29;;
66669;SDS011;53568;52.164;4.472;2024-02-14T10:25:29;8.62;;;8.62;;
66669;SDS011;53568;52.164;4.472;2024-02-14T10:27:56;8.61;;;8.61;;
66669;SDS011;53568;52.164;4.472;2024-02-14T10:30:22;7.40;;;7.40;;
66669;SDS011;53568;52.164;4.472;2024-02-14T10:32:48;7.00;;;7.00;;
66669;SDS011;53568;52.164;4.472;2024-02-14T10:35:14;6.91;;;6.91;;
66669;SDS011;53568;52.164;4.472;2024-02-14T10:37:41;7.14;;;7.14;;
66669;SDS011;53568;52.164;4.472;2024-02-14T10:40:07;6.72;;;6.72;;
66669;SDS011;53568;52.164;4.472;2024-02-14T10:42:36;5.64;;;5.64;;
66669;SDS011;53568;52.164;4.472;2024-02-14T10:45:02;5.34;;;5.34;;
66669;SDS011;53568;52.164;4.472;2024-02-14T10:47:32;5.05;;;5.05;;
66669;SDS011;53568;52.164;4.472;2024-02-14T10:50:00;4.54;;;4.54;;
66669;SDS011;53568;52.164;4.472;2024-02-14T10:52:30;4.80;;;4.80;;
66669;SDS011;53568;52.164;4.472;2024-02-14T10:55:04;4.27;;;4.27;;
66669;SDS011;53568;52.164;4.472;2024-02-14T10:57:30;4.26;;;4.26;;
66669;SDS011;53568;52.164;4.472;2024-02-14T11:00:01;4.00;;;4.00;;
66669;SDS011;53568;52.164;4.472;2024-02-14T11:02:31;4.35;;;4.35;;
66669;SDS011;53568;52.164;4.472;2024-02-14T11:04:58;4.26;;;4.26;;
66669;SDS011;53568;52.164;4.472;2024-02-14T11:07:23;4.41;;;4.41;;
66669;SDS011;53568;52.164;4.472;2024-02-14T11:10:05;4.92;;;4.92;;
66669;SDS011;53568;52.164;4.472;2024-02-14T11:12:35;4.55;;;4.55;;
66669;SDS011;53568;52.164;4.472;2024-02-14T11:15:10;5.18;;;5.18;;
66669;SDS011;53568;52.164;4.472;2024-02-14T11:17:38;4.59;;;4.59;;
66669;SDS011;53568;52.164;4.472;2024-02-14T11:20:13;4.76;;;4.76;;
66669;SDS011;53568;52.164;4.472;2024-02-14T11:22:50;5.39;;;5.39;;
66669;SDS011;53568;52.164;4.472;2024-02-14T11:25:22;4.93;;;4.92;;
66669;SDS011;53568;52.164;4.472;2024-02-14T11:27:59;4.86;;;4.86;;
66669;SDS011;53568;52.164;4.472;2024-02-14T11:30:31;4.95;;;4.95;;
66669;SDS011;53568;52.164;4.472;2024-02-14T11:33:18;4.94;;;4.94;;
66669;SDS011;53568;52.164;4.472;2024-02-14T11:35:52;5.08;;;5.08;;
66669;SDS011;53568;52.164;4.472;2024-02-14T11:38:20;5.18;;;5.18;;
66669;SDS011;53568;52.164;4.472;2024-02-14T11:40:48;5.12;;;5.12;;
66669;SDS011;53568;52.164;4.472;2024-02-14T11:43:18;5.27;;;5.27;;
66669;SDS011;53568;52.164;4.472;2024-02-14T11:45:45;4.90;;;4.90;;
66669;SDS011;53568;52.164;4.472;2024-02-14T11:48:14;5.11;;;5.11;;
66669;SDS011;53568;52.164;4.472;2024-02-14T11:50:42;4.75;;;4.75;;
66669;SDS011;53568;52.164;4.472;2024-02-14T11:53:10;4.77;;;4.77;;
66669;SDS011;53568;52.164;4.472;2024-02-14T11:55:37;4.54;;;4.54;;
66669;SDS011;53568;52.164;4.472;2024-02-14T11:58:09;4.30;;;4.30;;
66669;SDS011;53568;52.164;4.472;2024-02-14T12:03:10;3.90;;;3.90;;
66669;SDS011;53568;52.164;4.472;2024-02-14T12:05:48;3.67;;;3.67;;
66669;SDS011;53568;52.164;4.472;2024-02-14T12:08:16;3.61;;;3.61;;
66669;SDS011;53568;52.164;4.472;2024-02-14T12:10:43;3.66;;;3.66;;
66669;SDS011;53568;52.164;4.472;2024-02-14T12:13:13;4.42;;;4.42;;
66669;SDS011;53568;52.164;4.472;2024-02-14T12:15:46;3.92;;;3.92;;
66669;SDS011;53568;52.164;4.472;2024-02-14T12:18:13;4.04;;;4.04;;
66669;SDS011;53568;52.164;4.472;2024-02-14T12:20:42;4.11;;;4.11;;
66669;SDS011;53568;52.164;4.472;2024-02-14T12:23:15;4.63;;;4.63;;
66669;SDS011;53568;52.164;4.472;2024-02-14T12:25:44;5.07;;;5.07;;
66669;SDS011;53568;52.164;4.472;2024-02-14T12:28:18;5.12;;;5.12;;
66669;SDS011;53568;52.164;4.472;2024-02-14T12:30:51;5.02;;;5.02;;
66669;SDS011;53568;52.164;4.472;2024-02-14T12:33:26;5.06;;;5.06;;
66669;SDS011;53568;52.164;4.472;2024-02-14T12:35:53;5.18;;;5.18;;
66669;SDS011;53568;52.164;4.472;2024-02-14T12:38:20;5.31;;;5.31;;
66669;SDS011;53568;52.164;4.472;2024-02-14T12:40:48;5.18;;;5.18;;
66669;SDS011;53568;52.164;4.472;2024-02-14T12:43:15;5.30;;;5.30;;
66669;SDS011;53568;52.164;4.472;2024-02-14T12:45:41;5.03;;;5.03;;
66669;SDS011;53568;52.164;4.472;2024-02-14T12:48:08;4.98;;;4.98;;
66669;SDS011;53568;52.164;4.472;2024-02-14T12:50:35;5.58;;;5.58;;
66669;SDS011;53568;52.164;4.472;2024-02-14T12:53:09;5.87;;;5.87;;
66669;SDS011;53568;52.164;4.472;2024-02-14T12:55:35;5.86;;;5.86;;
66669;SDS011;53568;52.164;4.472;2024-02-14T12:58:01;5.56;;;5.56;;
66669;SDS011;53568;52.164;4.472;2024-02-14T13:00:27;5.36;;;5.36;;
66669;SDS011;53568;52.164;4.472;2024-02-14T13:02:54;5.32;;;5.32;;
66669;SDS011;53568;52.164;4.472;2024-02-14T13:05:19;5.90;;;5.90;;
66669;SDS011;53568;52.164;4.472;2024-02-14T13:07:45;6.44;;;6.44;;
66669;SDS011;53568;52.164;4.472;2024-02-14T13:10:12;6.38;;;6.38;;
66669;SDS011;53568;52.164;4.472;2024-02-14T13:12:38;6.84;;;6.84;;
66669;SDS011;53568;52.164;4.472;2024-02-14T13:15:04;6.94;;;6.94;;
66669;SDS011;53568;52.164;4.472;2024-02-14T13:17:30;7.55;;;7.55;;
66669;SDS011;53568;52.164;4.472;2024-02-14T13:19:56;8.45;;;8.45;;
66669;SDS011;53568;52.164;4.472;2024-02-14T13:22:22;8.31;;;8.30;;
66669;SDS011;53568;52.164;4.472;2024-02-14T13:24:48;8.08;;;8.08;;
66669;SDS011;53568;52.164;4.472;2024-02-14T13:27:14;8.09;;;8.09;;
66669;SDS011;53568;52.164;4.472;2024-02-14T13:29:39;7.56;;;7.56;;
66669;SDS011;53568;52.164;4.472;2024-02-14T13:32:05;6.88;;;6.88;;
66669;SDS011;53568;52.164;4.472;2024-02-14T13:34:32;6.29;;;6.29;;
66669;SDS011;53568;52.164;4.472;2024-02-14T13:36:59;5.71;;;5.71;;
66669;SDS011;53568;52.164;4.472;2024-02-14T13:39:25;4.48;;;4.48;;
66669;SDS011;53568;52.164;4.472;2024-02-14T13:41:50;4.48;;;4.48;;
66669;SDS011;53568;52.164;4.472;2024-02-14T13:44:17;3.90;;;3.90;;
66669;SDS011;53568;52.164;4.472;2024-02-14T13:46:44;3.55;;;3.55;;
66669;SDS011;53568;52.164;4.472;2024-02-14T13:49:11;3.13;;;3.13;;
66669;SDS011;53568;52.164;4.472;2024-02-14T13:51:38;2.79;;;2.79;;
66669;SDS011;53568;52.164;4.472;2024-02-14T13:54:04;2.35;;;2.35;;
66669;SDS011;53568;52.164;4.472;2024-02-14T13:56:29;2.04;;;2.04;;
66669;SDS011;53568;52.164;4.472;2024-02-14T13:58:55;1.92;;;1.92;;
66669;SDS011;53568;52.164;4.472;2024-02-14T14:01:21;1.78;;;1.78;;
66669;SDS011;53568;52.164;4.472;2024-02-14T14:03:46;1.64;;;1.64;;
66669;SDS011;53568;52.164;4.472;2024-02-14T14:06:15;1.59;;;1.59;;
66669;SDS011;53568;52.164;4.472;2024-02-14T14:08:41;1.16;;;1.16;;
66669;SDS011;53568;52.164;4.472;2024-02-14T14:11:06;1.13;;;1.13;;
66669;SDS011;53568;52.164;4.472;2024-02-14T14:13:34;1.17;;;1.17;;
66669;SDS011;53568;52.164;4.472;2024-02-14T14:15:59;1.04;;;1.04;;
66669;SDS011;53568;52.164;4.472;2024-02-14T14:18:25;0.97;;;0.97;;
66669;SDS011;53568;52.164;4.472;2024-02-14T14:20:51;1.24;;;1.24;;
66669;SDS011;53568;52.164;4.472;2024-02-14T14:23:20;1.20;;;1.20;;
66669;SDS011;53568;52.164;4.472;2024-02-14T14:25:45;1.41;;;1.41;;
66669;SDS011;53568;52.164;4.472;2024-02-14T14:28:11;1.41;;;1.41;;
66669;SDS011;53568;52.164;4.472;2024-02-14T14:30:36;1.57;;;1.57;;
66669;SDS011;53568;52.164;4.472;2024-02-14T14:33:03;1.76;;;1.76;;
66669;SDS011;53568;52.164;4.472;2024-02-14T14:35:29;1.68;;;1.68;;
66669;SDS011;53568;52.164;4.472;2024-02-14T14:38:07;1.70;;;1.70;;